sensor_id;sensor_type;location;lat;lon;timestamp;P1;durP1;ratioP1;P2;durP2;ratioP2
66145;SDS011;52948;60.040;30.320;2023-08-08T00:03:01;4.47;;;4.03;;
66145;SDS011;52948;60.040;30.320;2023-08-08T00:08:04;5.38;;;4.18;;
66145;SDS011;52948;60.040;30.320;2023-08-08T00:13:06;5.80;;;4.80;;
66145;SDS011;52948;60.040;30.320;2023-08-08T00:18:08;3.85;;;3.47;;
66145;SDS011;52948;60.040;30.320;2023-08-08T00:23:10;6.60;;;4.60;;
66145;SDS011;52948;60.040;30.320;2023-08-08T00:28:13;4.30;;;4.00;;
66145;SDS011;52948;60.040;30.320;2023-08-08T00:33:15;4.30;;;3.90;;
66145;SDS011;52948;60.040;30.320;2023-08-08T00:38:18;4.30;;;3.90;;
66145;SDS011;52948;60.040;30.320;2023-08-08T00:43:20;5.43;;;4.30;;
66145;SDS011;52948;60.040;30.320;2023-08-08T00:48:22;4.38;;;3.97;;
66145;SDS011;52948;60.040;30.320;2023-08-08T00:53:25;4.95;;;4.45;;
66145;SDS011;52948;60.040;30.320;2023-08-08T00:58:29;5.68;;;4.65;;
66145;SDS011;52948;60.040;30.320;2023-08-08T01:03:32;5.15;;;4.30;;
66145;SDS011;52948;60.040;30.320;2023-08-08T01:08:45;4.55;;;3.58;;
66145;SDS011;52948;60.040;30.320;2023-08-08T01:13:50;4.40;;;4.00;;
66145;SDS011;52948;60.040;30.320;2023-08-08T01:18:53;5.78;;;4.65;;
66145;SDS011;52948;60.040;30.320;2023-08-08T01:24:37;5.75;;;4.40;;
66145;SDS011;52948;60.040;30.320;2023-08-08T01:29:24;4.40;;;4.00;;
66145;SDS011;52948;60.040;30.320;2023-08-08T01:34:26;4.18;;;3.78;;
66145;SDS011;52948;60.040;30.320;2023-08-08T01:39:29;4.38;;;3.97;;
66145;SDS011;52948;60.040;30.320;2023-08-08T01:44:32;3.30;;;3.00;;
66145;SDS011;52948;60.040;30.320;2023-08-08T01:49:36;5.82;;;3.90;;
66145;SDS011;52948;60.040;30.320;2023-08-08T01:54:38;5.55;;;3.85;;
66145;SDS011;52948;60.040;30.320;2023-08-08T01:59:40;5.13;;;4.10;;
66145;SDS011;52948;60.040;30.320;2023-08-08T02:04:43;5.78;;;3.63;;
66145;SDS011;52948;60.040;30.320;2023-08-08T02:09:45;8.13;;;3.25;;
66145;SDS011;52948;60.040;30.320;2023-08-08T02:14:48;3.20;;;2.90;;
66145;SDS011;52948;60.040;30.320;2023-08-08T02:19:50;5.45;;;3.53;;
66145;SDS011;52948;60.040;30.320;2023-08-08T02:24:52;5.03;;;4.63;;
66145;SDS011;52948;60.040;30.320;2023-08-08T02:29:54;5.18;;;4.13;;
66145;SDS011;52948;60.040;30.320;2023-08-08T02:34:56;5.68;;;4.28;;
66145;SDS011;52948;60.040;30.320;2023-08-08T02:40:00;4.80;;;3.83;;
66145;SDS011;52948;60.040;30.320;2023-08-08T02:45:02;5.15;;;4.07;;
66145;SDS011;52948;60.040;30.320;2023-08-08T02:50:06;4.85;;;3.83;;
66145;SDS011;52948;60.040;30.320;2023-08-08T02:55:08;3.60;;;3.30;;
66145;SDS011;52948;60.040;30.320;2023-08-08T03:00:13;5.68;;;3.92;;
66145;SDS011;52948;60.040;30.320;2023-08-08T03:05:18;4.65;;;3.40;;
66145;SDS011;52948;60.040;30.320;2023-08-08T03:10:20;4.47;;;3.42;;
66145;SDS011;52948;60.040;30.320;2023-08-08T03:15:23;3.63;;;3.13;;
66145;SDS011;52948;60.040;30.320;2023-08-08T03:20:26;3.53;;;3.22;;
66145;SDS011;52948;60.040;30.320;2023-08-08T03:25:28;4.93;;;3.83;;
66145;SDS011;52948;60.040;30.320;2023-08-08T03:30:31;5.88;;;3.78;;
66145;SDS011;52948;60.040;30.320;2023-08-08T03:35:34;4.95;;;4.13;;
66145;SDS011;52948;60.040;30.320;2023-08-08T03:40:37;6.60;;;4.40;;
66145;SDS011;52948;60.040;30.320;2023-08-08T03:45:40;6.75;;;4.22;;
66145;SDS011;52948;60.040;30.320;2023-08-08T03:50:42;6.88;;;4.00;;
66145;SDS011;52948;60.040;30.320;2023-08-08T03:55:44;4.90;;;3.65;;
66145;SDS011;52948;60.040;30.320;2023-08-08T04:00:47;5.68;;;4.00;;
66145;SDS011;52948;60.040;30.320;2023-08-08T04:05:49;5.55;;;4.40;;
66145;SDS011;52948;60.040;30.320;2023-08-08T04:10:51;4.40;;;4.00;;
66145;SDS011;52948;60.040;30.320;2023-08-08T04:15:54;5.35;;;3.97;;
66145;SDS011;52948;60.040;30.320;2023-08-08T04:20:56;3.42;;;2.47;;
66145;SDS011;52948;60.040;30.320;2023-08-08T04:25:58;5.18;;;3.83;;
66145;SDS011;52948;60.040;30.320;2023-08-08T04:31:00;6.38;;;4.25;;
66145;SDS011;52948;60.040;30.320;2023-08-08T04:36:02;4.82;;;4.22;;
66145;SDS011;52948;60.040;30.320;2023-08-08T04:41:05;9.25;;;3.55;;
66145;SDS011;52948;60.040;30.320;2023-08-08T04:46:07;5.55;;;4.07;;
66145;SDS011;52948;60.040;30.320;2023-08-08T04:51:09;6.85;;;4.00;;
66145;SDS011;52948;60.040;30.320;2023-08-08T04:56:11;3.53;;;3.20;;
66145;SDS011;52948;60.040;30.320;2023-08-08T05:01:14;4.82;;;3.72;;
66145;SDS011;52948;60.040;30.320;2023-08-08T05:06:17;4.00;;;3.60;;
66145;SDS011;52948;60.040;30.320;2023-08-08T05:11:19;5.40;;;3.30;;
66145;SDS011;52948;60.040;30.320;2023-08-08T05:16:21;5.22;;;3.15;;
66145;SDS011;52948;60.040;30.320;2023-08-08T05:21:24;5.28;;;3.55;;
66145;SDS011;52948;60.040;30.320;2023-08-08T05:26:27;4.00;;;3.70;;
66145;SDS011;52948;60.040;30.320;2023-08-08T05:31:29;7.47;;;3.15;;
66145;SDS011;52948;60.040;30.320;2023-08-08T05:36:31;4.18;;;3.78;;
66145;SDS011;52948;60.040;30.320;2023-08-08T05:41:33;5.15;;;3.83;;
66145;SDS011;52948;60.040;30.320;2023-08-08T05:46:35;7.45;;;3.67;;
66145;SDS011;52948;60.040;30.320;2023-08-08T05:51:37;4.72;;;4.00;;
66145;SDS011;52948;60.040;30.320;2023-08-08T05:56:41;5.03;;;4.05;;
66145;SDS011;52948;60.040;30.320;2023-08-08T06:01:43;5.68;;;3.95;;
66145;SDS011;52948;60.040;30.320;2023-08-08T06:06:46;4.45;;;3.50;;
66145;SDS011;52948;60.040;30.320;2023-08-08T06:11:50;4.15;;;3.75;;
66145;SDS011;52948;60.040;30.320;2023-08-08T06:16:52;5.18;;;4.38;;
66145;SDS011;52948;60.040;30.320;2023-08-08T06:21:55;7.10;;;5.82;;
66145;SDS011;52948;60.040;30.320;2023-08-08T06:26:57;5.95;;;4.70;;
66145;SDS011;52948;60.040;30.320;2023-08-08T06:31:59;4.97;;;4.25;;
66145;SDS011;52948;60.040;30.320;2023-08-08T06:37:01;5.03;;;4.28;;
66145;SDS011;52948;60.040;30.320;2023-08-08T06:42:03;5.10;;;4.60;;
66145;SDS011;52948;60.040;30.320;2023-08-08T06:47:14;6.40;;;5.13;;
66145;SDS011;52948;60.040;30.320;2023-08-08T06:52:16;4.53;;;4.05;;
66145;SDS011;52948;60.040;30.320;2023-08-08T06:57:18;8.50;;;5.07;;
66145;SDS011;52948;60.040;30.320;2023-08-08T07:02:20;8.27;;;5.40;;
66145;SDS011;52948;60.040;30.320;2023-08-08T07:07:23;6.63;;;4.88;;
66145;SDS011;52948;60.040;30.320;2023-08-08T07:12:25;4.82;;;4.32;;
66145;SDS011;52948;60.040;30.320;2023-08-08T07:17:27;6.78;;;4.15;;
66145;SDS011;52948;60.040;30.320;2023-08-08T07:22:29;5.65;;;4.93;;
66145;SDS011;52948;60.040;30.320;2023-08-08T07:27:31;8.05;;;5.07;;
66145;SDS011;52948;60.040;30.320;2023-08-08T07:32:33;5.47;;;4.97;;
66145;SDS011;52948;60.040;30.320;2023-08-08T07:37:36;5.30;;;4.35;;
66145;SDS011;52948;60.040;30.320;2023-08-08T07:42:38;5.68;;;4.60;;
66145;SDS011;52948;60.040;30.320;2023-08-08T07:47:40;6.07;;;4.50;;
66145;SDS011;52948;60.040;30.320;2023-08-08T07:52:43;7.43;;;4.43;;
66145;SDS011;52948;60.040;30.320;2023-08-08T07:57:45;7.53;;;4.78;;
66145;SDS011;52948;60.040;30.320;2023-08-08T08:02:47;7.40;;;4.10;;
66145;SDS011;52948;60.040;30.320;2023-08-08T08:07:50;5.68;;;4.47;;
66145;SDS011;52948;60.040;30.320;2023-08-08T08:12:52;7.95;;;3.72;;
66145;SDS011;52948;60.040;30.320;2023-08-08T08:17:59;4.15;;;3.60;;
66145;SDS011;52948;60.040;30.320;2023-08-08T08:23:02;8.40;;;3.25;;
66145;SDS011;52948;60.040;30.320;2023-08-08T08:28:04;4.85;;;3.38;;
66145;SDS011;52948;60.040;30.320;2023-08-08T08:33:06;3.78;;;3.25;;
66145;SDS011;52948;60.040;30.320;2023-08-08T08:38:10;6.38;;;3.90;;
66145;SDS011;52948;60.040;30.320;2023-08-08T08:43:12;4.35;;;3.80;;
66145;SDS011;52948;60.040;30.320;2023-08-08T08:48:15;3.58;;;3.25;;
66145;SDS011;52948;60.040;30.320;2023-08-08T08:53:18;3.65;;;2.90;;
66145;SDS011;52948;60.040;30.320;2023-08-08T08:58:20;1.85;;;1.67;;
66145;SDS011;52948;60.040;30.320;2023-08-08T09:03:23;2.33;;;1.73;;
66145;SDS011;52948;60.040;30.320;2023-08-08T09:08:27;2.78;;;1.30;;
66145;SDS011;52948;60.040;30.320;2023-08-08T09:13:37;2.13;;;1.67;;
66145;SDS011;52948;60.040;30.320;2023-08-08T09:18:42;3.53;;;1.73;;
66145;SDS011;52948;60.040;30.320;2023-08-08T09:23:45;4.82;;;1.80;;
66145;SDS011;52948;60.040;30.320;2023-08-08T09:28:47;2.22;;;2.00;;
66145;SDS011;52948;60.040;30.320;2023-08-08T09:33:50;2.40;;;1.60;;
66145;SDS011;52948;60.040;30.320;2023-08-08T09:38:54;2.30;;;1.55;;
66145;SDS011;52948;60.040;30.320;2023-08-08T09:43:58;1.83;;;1.50;;
66145;SDS011;52948;60.040;30.320;2023-08-08T09:49:00;1.52;;;1.40;;
66145;SDS011;52948;60.040;30.320;2023-08-08T09:54:03;1.40;;;1.10;;
66145;SDS011;52948;60.040;30.320;2023-08-08T09:59:07;2.72;;;1.13;;
66145;SDS011;52948;60.040;30.320;2023-08-08T10:04:11;1.20;;;1.10;;
66145;SDS011;52948;60.040;30.320;2023-08-08T10:09:14;3.80;;;0.88;;
66145;SDS011;52948;60.040;30.320;2023-08-08T10:14:18;0.90;;;0.80;;
66145;SDS011;52948;60.040;30.320;2023-08-08T10:19:25;1.23;;;0.77;;
66145;SDS011;52948;60.040;30.320;2023-08-08T10:24:32;1.15;;;0.88;;
66145;SDS011;52948;60.040;30.320;2023-08-08T10:29:37;4.00;;;0.80;;
66145;SDS011;52948;60.040;30.320;2023-08-08T10:34:43;1.15;;;0.75;;
66145;SDS011;52948;60.040;30.320;2023-08-08T10:39:59;4.32;;;1.00;;
66145;SDS011;52948;60.040;30.320;2023-08-08T10:45:09;0.80;;;0.80;;
66145;SDS011;52948;60.040;30.320;2023-08-08T10:50:14;0.50;;;0.50;;
66145;SDS011;52948;60.040;30.320;2023-08-08T10:55:20;1.88;;;0.60;;
66145;SDS011;52948;60.040;30.320;2023-08-08T11:00:28;1.05;;;0.80;;
66145;SDS011;52948;60.040;30.320;2023-08-08T11:05:33;0.70;;;0.50;;
66145;SDS011;52948;60.040;30.320;2023-08-08T11:10:37;0.90;;;0.68;;
66145;SDS011;52948;60.040;30.320;2023-08-08T11:15:40;0.70;;;0.70;;
66145;SDS011;52948;60.040;30.320;2023-08-08T11:20:43;0.90;;;0.50;;
66145;SDS011;52948;60.040;30.320;2023-08-08T11:25:46;0.80;;;0.60;;
66145;SDS011;52948;60.040;30.320;2023-08-08T11:30:48;0.60;;;0.60;;
66145;SDS011;52948;60.040;30.320;2023-08-08T11:35:52;1.20;;;0.60;;
66145;SDS011;52948;60.040;30.320;2023-08-08T11:40:54;0.70;;;0.47;;
66145;SDS011;52948;60.040;30.320;2023-08-08T11:45:59;0.57;;;0.55;;
66145;SDS011;52948;60.040;30.320;2023-08-08T11:51:05;0.60;;;0.43;;
66145;SDS011;52948;60.040;30.320;2023-08-08T11:56:08;0.57;;;0.57;;
66145;SDS011;52948;60.040;30.320;2023-08-08T12:01:10;0.90;;;0.52;;
66145;SDS011;52948;60.040;30.320;2023-08-08T12:06:16;2.47;;;1.02;;
66145;SDS011;52948;60.040;30.320;2023-08-08T12:11:18;1.02;;;0.60;;
66145;SDS011;52948;60.040;30.320;2023-08-08T12:16:21;0.80;;;0.70;;
66145;SDS011;52948;60.040;30.320;2023-08-08T12:21:23;0.55;;;0.50;;
66145;SDS011;52948;60.040;30.320;2023-08-08T12:26:25;0.60;;;0.40;;
66145;SDS011;52948;60.040;30.320;2023-08-08T12:31:27;1.85;;;0.57;;
66145;SDS011;52948;60.040;30.320;2023-08-08T12:36:30;0.60;;;0.40;;
66145;SDS011;52948;60.040;30.320;2023-08-08T12:41:32;0.45;;;0.35;;
66145;SDS011;52948;60.040;30.320;2023-08-08T12:46:34;0.50;;;0.50;;
66145;SDS011;52948;60.040;30.320;2023-08-08T12:51:37;0.60;;;0.60;;
66145;SDS011;52948;60.040;30.320;2023-08-08T12:56:39;1.05;;;0.70;;
66145;SDS011;52948;60.040;30.320;2023-08-08T13:01:41;0.50;;;0.50;;
66145;SDS011;52948;60.040;30.320;2023-08-08T13:06:43;0.57;;;0.50;;
66145;SDS011;52948;60.040;30.320;2023-08-08T13:11:45;1.33;;;0.60;;
66145;SDS011;52948;60.040;30.320;2023-08-08T13:16:48;3.42;;;1.02;;
66145;SDS011;52948;60.040;30.320;2023-08-08T13:21:51;0.68;;;0.43;;
66145;SDS011;52948;60.040;30.320;2023-08-08T13:26:54;0.55;;;0.50;;
66145;SDS011;52948;60.040;30.320;2023-08-08T13:31:56;0.50;;;0.40;;
66145;SDS011;52948;60.040;30.320;2023-08-08T13:36:58;0.70;;;0.60;;
66145;SDS011;52948;60.040;30.320;2023-08-08T13:42:00;1.05;;;0.70;;
66145;SDS011;52948;60.040;30.320;2023-08-08T13:47:03;3.40;;;0.82;;
66145;SDS011;52948;60.040;30.320;2023-08-08T13:52:06;2.60;;;0.70;;
66145;SDS011;52948;60.040;30.320;2023-08-08T13:57:08;1.90;;;1.75;;
66145;SDS011;52948;60.040;30.320;2023-08-08T14:02:10;1.45;;;0.70;;
66145;SDS011;52948;60.040;30.320;2023-08-08T14:07:12;0.50;;;0.40;;
66145;SDS011;52948;60.040;30.320;2023-08-08T14:12:14;1.42;;;0.70;;
66145;SDS011;52948;60.040;30.320;2023-08-08T14:17:17;1.13;;;0.70;;
66145;SDS011;52948;60.040;30.320;2023-08-08T14:22:19;2.30;;;0.90;;
66145;SDS011;52948;60.040;30.320;2023-08-08T14:27:21;1.50;;;0.50;;
66145;SDS011;52948;60.040;30.320;2023-08-08T14:32:23;1.20;;;0.40;;
66145;SDS011;52948;60.040;30.320;2023-08-08T14:37:25;1.02;;;0.25;;
66145;SDS011;52948;60.040;30.320;2023-08-08T14:42:28;0.55;;;0.50;;
66145;SDS011;52948;60.040;30.320;2023-08-08T14:47:30;2.08;;;0.55;;
66145;SDS011;52948;60.040;30.320;2023-08-08T14:52:32;0.85;;;0.70;;
66145;SDS011;52948;60.040;30.320;2023-08-08T14:57:35;0.73;;;0.50;;
66145;SDS011;52948;60.040;30.320;2023-08-08T15:02:37;0.75;;;0.52;;
66145;SDS011;52948;60.040;30.320;2023-08-08T15:07:40;1.65;;;0.50;;
66145;SDS011;52948;60.040;30.320;2023-08-08T15:12:42;1.63;;;0.55;;
66145;SDS011;52948;60.040;30.320;2023-08-08T15:17:44;1.30;;;0.35;;
66145;SDS011;52948;60.040;30.320;2023-08-08T15:22:48;0.73;;;0.55;;
66145;SDS011;52948;60.040;30.320;2023-08-08T15:27:50;0.40;;;0.40;;
66145;SDS011;52948;60.040;30.320;2023-08-08T15:32:52;0.50;;;0.50;;
66145;SDS011;52948;60.040;30.320;2023-08-08T15:37:54;0.93;;;0.52;;
66145;SDS011;52948;60.040;30.320;2023-08-08T15:42:57;0.70;;;0.70;;
66145;SDS011;52948;60.040;30.320;2023-08-08T15:48:00;0.47;;;0.47;;
66145;SDS011;52948;60.040;30.320;2023-08-08T15:53:02;0.82;;;0.60;;
66145;SDS011;52948;60.040;30.320;2023-08-08T15:58:06;0.60;;;0.60;;
66145;SDS011;52948;60.040;30.320;2023-08-08T16:03:09;0.75;;;0.57;;
66145;SDS011;52948;60.040;30.320;2023-08-08T16:08:11;0.68;;;0.60;;
66145;SDS011;52948;60.040;30.320;2023-08-08T16:13:14;0.45;;;0.40;;
66145;SDS011;52948;60.040;30.320;2023-08-08T16:18:16;0.65;;;0.60;;
66145;SDS011;52948;60.040;30.320;2023-08-08T16:23:18;1.50;;;0.60;;
66145;SDS011;52948;60.040;30.320;2023-08-08T16:28:20;1.15;;;0.50;;
66145;SDS011;52948;60.040;30.320;2023-08-08T16:33:22;0.73;;;0.60;;
66145;SDS011;52948;60.040;30.320;2023-08-08T16:38:24;0.70;;;0.50;;
66145;SDS011;52948;60.040;30.320;2023-08-08T16:43:27;0.50;;;0.50;;
66145;SDS011;52948;60.040;30.320;2023-08-08T16:48:33;0.50;;;0.50;;
66145;SDS011;52948;60.040;30.320;2023-08-08T16:53:35;0.70;;;0.70;;
66145;SDS011;52948;60.040;30.320;2023-08-08T16:58:37;0.88;;;0.65;;
66145;SDS011;52948;60.040;30.320;2023-08-08T17:03:41;0.95;;;0.70;;
66145;SDS011;52948;60.040;30.320;2023-08-08T17:08:43;0.95;;;0.85;;
66145;SDS011;52948;60.040;30.320;2023-08-08T17:13:47;1.20;;;0.90;;
66145;SDS011;52948;60.040;30.320;2023-08-08T17:18:49;0.70;;;0.70;;
66145;SDS011;52948;60.040;30.320;2023-08-08T17:23:54;2.05;;;0.70;;
66145;SDS011;52948;60.040;30.320;2023-08-08T17:28:57;2.35;;;0.73;;
66145;SDS011;52948;60.040;30.320;2023-08-08T17:33:59;1.50;;;1.00;;
66145;SDS011;52948;60.040;30.320;2023-08-08T17:39:01;1.95;;;0.80;;
66145;SDS011;52948;60.040;30.320;2023-08-08T17:44:04;1.95;;;0.70;;
66145;SDS011;52948;60.040;30.320;2023-08-08T17:49:06;0.80;;;0.80;;
66145;SDS011;52948;60.040;30.320;2023-08-08T17:54:09;1.50;;;0.80;;
66145;SDS011;52948;60.040;30.320;2023-08-08T17:59:13;0.85;;;0.68;;
66145;SDS011;52948;60.040;30.320;2023-08-08T18:04:15;1.95;;;0.65;;
66145;SDS011;52948;60.040;30.320;2023-08-08T18:09:17;0.60;;;0.60;;
66145;SDS011;52948;60.040;30.320;2023-08-08T18:14:19;2.13;;;0.70;;
66145;SDS011;52948;60.040;30.320;2023-08-08T18:19:22;1.20;;;0.70;;
66145;SDS011;52948;60.040;30.320;2023-08-08T18:24:24;0.70;;;0.63;;
66145;SDS011;52948;60.040;30.320;2023-08-08T18:29:26;0.82;;;0.60;;
66145;SDS011;52948;60.040;30.320;2023-08-08T18:34:29;1.15;;;0.77;;
66145;SDS011;52948;60.040;30.320;2023-08-08T18:39:31;1.65;;;0.90;;
66145;SDS011;52948;60.040;30.320;2023-08-08T18:44:33;1.10;;;0.98;;
66145;SDS011;52948;60.040;30.320;2023-08-08T18:49:35;4.07;;;1.05;;
66145;SDS011;52948;60.040;30.320;2023-08-08T18:54:38;0.70;;;0.65;;
66145;SDS011;52948;60.040;30.320;2023-08-08T18:59:40;2.90;;;0.90;;
66145;SDS011;52948;60.040;30.320;2023-08-08T19:04:42;1.73;;;0.90;;
66145;SDS011;52948;60.040;30.320;2023-08-08T19:09:45;1.65;;;0.80;;
66145;SDS011;52948;60.040;30.320;2023-08-08T19:14:47;2.05;;;0.85;;
66145;SDS011;52948;60.040;30.320;2023-08-08T19:19:49;1.70;;;1.00;;
66145;SDS011;52948;60.040;30.320;2023-08-08T19:24:52;1.00;;;0.90;;
66145;SDS011;52948;60.040;30.320;2023-08-08T19:29:57;1.60;;;1.00;;
66145;SDS011;52948;60.040;30.320;2023-08-08T19:34:59;4.50;;;1.40;;
66145;SDS011;52948;60.040;30.320;2023-08-08T19:40:02;1.90;;;1.27;;
66145;SDS011;52948;60.040;30.320;2023-08-08T19:45:05;2.63;;;1.13;;
66145;SDS011;52948;60.040;30.320;2023-08-08T19:50:08;2.42;;;1.05;;
66145;SDS011;52948;60.040;30.320;2023-08-08T19:55:10;2.60;;;1.05;;
66145;SDS011;52948;60.040;30.320;2023-08-08T20:00:14;1.25;;;0.88;;
66145;SDS011;52948;60.040;30.320;2023-08-08T20:05:16;2.08;;;1.10;;
66145;SDS011;52948;60.040;30.320;2023-08-08T20:10:18;1.35;;;0.77;;
66145;SDS011;52948;60.040;30.320;2023-08-08T20:15:21;2.85;;;1.00;;
66145;SDS011;52948;60.040;30.320;2023-08-08T20:20:23;1.90;;;1.13;;
66145;SDS011;52948;60.040;30.320;2023-08-08T20:25:25;2.70;;;1.35;;
66145;SDS011;52948;60.040;30.320;2023-08-08T20:30:27;4.00;;;1.30;;
66145;SDS011;52948;60.040;30.320;2023-08-08T20:35:30;2.10;;;1.17;;
66145;SDS011;52948;60.040;30.320;2023-08-08T20:40:35;1.63;;;1.20;;
66145;SDS011;52948;60.040;30.320;2023-08-08T20:45:37;3.30;;;1.40;;
66145;SDS011;52948;60.040;30.320;2023-08-08T20:50:39;3.58;;;1.50;;
66145;SDS011;52948;60.040;30.320;2023-08-08T20:55:41;2.13;;;1.23;;
66145;SDS011;52948;60.040;30.320;2023-08-08T21:00:44;2.05;;;1.10;;
66145;SDS011;52948;60.040;30.320;2023-08-08T21:05:46;1.13;;;1.02;;
66145;SDS011;52948;60.040;30.320;2023-08-08T21:10:48;2.90;;;1.20;;
66145;SDS011;52948;60.040;30.320;2023-08-08T21:15:50;1.17;;;0.98;;
66145;SDS011;52948;60.040;30.320;2023-08-08T21:20:53;1.15;;;0.93;;
66145;SDS011;52948;60.040;30.320;2023-08-08T21:25:55;1.30;;;1.17;;
66145;SDS011;52948;60.040;30.320;2023-08-08T21:30:57;1.40;;;1.10;;
66145;SDS011;52948;60.040;30.320;2023-08-08T21:36:04;1.10;;;1.00;;
66145;SDS011;52948;60.040;30.320;2023-08-08T21:46:09;1.55;;;1.00;;
66145;SDS011;52948;60.040;30.320;2023-08-08T21:51:11;2.00;;;1.30;;
66145;SDS011;52948;60.040;30.320;2023-08-08T21:56:14;3.17;;;1.63;;
66145;SDS011;52948;60.040;30.320;2023-08-08T22:01:16;4.20;;;1.25;;
66145;SDS011;52948;60.040;30.320;2023-08-08T22:06:19;2.95;;;1.30;;
66145;SDS011;52948;60.040;30.320;2023-08-08T22:11:21;1.85;;;1.40;;
66145;SDS011;52948;60.040;30.320;2023-08-08T22:16:23;1.30;;;1.10;;
66145;SDS011;52948;60.040;30.320;2023-08-08T22:21:26;1.85;;;1.48;;
66145;SDS011;52948;60.040;30.320;2023-08-08T22:26:28;3.10;;;1.02;;
66145;SDS011;52948;60.040;30.320;2023-08-08T22:31:31;2.67;;;1.30;;
66145;SDS011;52948;60.040;30.320;2023-08-08T22:36:33;4.28;;;1.50;;
66145;SDS011;52948;60.040;30.320;2023-08-08T22:41:35;2.75;;;1.20;;
66145;SDS011;52948;60.040;30.320;2023-08-08T22:46:38;1.65;;;1.33;;
66145;SDS011;52948;60.040;30.320;2023-08-08T22:51:40;1.50;;;1.40;;
66145;SDS011;52948;60.040;30.320;2023-08-08T22:56:42;2.58;;;1.45;;
66145;SDS011;52948;60.040;30.320;2023-08-08T23:01:45;1.30;;;1.15;;
66145;SDS011;52948;60.040;30.320;2023-08-08T23:06:47;1.67;;;1.27;;
66145;SDS011;52948;60.040;30.320;2023-08-08T23:11:49;3.50;;;1.20;;
66145;SDS011;52948;60.040;30.320;2023-08-08T23:16:52;2.88;;;1.50;;
66145;SDS011;52948;60.040;30.320;2023-08-08T23:21:57;6.53;;;2.00;;
66145;SDS011;52948;60.040;30.320;2023-08-08T23:26:59;3.13;;;1.55;;
66145;SDS011;52948;60.040;30.320;2023-08-08T23:32:02;6.35;;;1.70;;
66145;SDS011;52948;60.040;30.320;2023-08-08T23:37:05;1.90;;;1.58;;
66145;SDS011;52948;60.040;30.320;2023-08-08T23:42:07;2.53;;;1.63;;
66145;SDS011;52948;60.040;30.320;2023-08-08T23:47:10;2.83;;;1.90;;
66145;SDS011;52948;60.040;30.320;2023-08-08T23:52:13;5.07;;;2.00;;
66145;SDS011;52948;60.040;30.320;2023-08-08T23:57:15;2.15;;;1.90;;
